createdAt,value
2023-03-08T00:02:15.475Z,2.10
2023-03-08T00:04:42.138Z,2.10
2023-03-08T00:07:09.132Z,2.10
2023-03-08T00:09:38.042Z,2.10
2023-03-08T00:12:04.883Z,2.10
2023-03-08T00:14:31.684Z,2.10
2023-03-08T00:16:58.705Z,2.10
2023-03-08T00:19:25.294Z,2.00
2023-03-08T00:21:51.976Z,2.00
2023-03-08T00:24:19.726Z,2.00
2023-03-08T00:26:46.409Z,2.00
2023-03-08T00:29:13.108Z,2.00
2023-03-08T00:31:39.872Z,2.00
2023-03-08T00:34:06.603Z,2.00
2023-03-08T00:36:33.232Z,1.90
2023-03-08T00:38:59.843Z,1.90
2023-03-08T00:41:26.549Z,1.90
2023-03-08T00:43:53.206Z,1.90
2023-03-08T00:46:19.906Z,1.90
2023-03-08T00:48:46.724Z,1.90
2023-03-08T00:51:19.397Z,1.90
2023-03-08T00:53:46.436Z,1.80
2023-03-08T00:56:13.711Z,1.80
2023-03-08T00:58:41.275Z,1.80
2023-03-08T01:01:11.890Z,1.80
2023-03-08T01:03:38.653Z,1.80
2023-03-08T01:06:09.082Z,1.80
2023-03-08T01:08:36.273Z,1.80
2023-03-08T01:11:03.418Z,1.80
2023-03-08T01:13:33.370Z,1.70
2023-03-08T01:16:01.091Z,1.70
2023-03-08T01:18:28.392Z,1.70
2023-03-08T01:21:03.767Z,1.70
2023-03-08T01:23:31.479Z,1.70
2023-03-08T01:26:02.827Z,1.70
2023-03-08T01:28:29.965Z,1.70
2023-03-08T01:31:04.992Z,1.70
2023-03-08T01:33:32.096Z,1.70
2023-03-08T01:35:58.801Z,1.70
2023-03-08T01:38:25.797Z,1.60
2023-03-08T01:41:00.003Z,1.60
2023-03-08T01:43:29.786Z,1.60
2023-03-08T01:46:18.304Z,1.60
2023-03-08T01:49:07.642Z,1.60
2023-03-08T01:51:36.549Z,1.60
2023-03-08T01:54:08.299Z,1.60
2023-03-08T01:56:37.532Z,1.60
2023-03-08T01:59:04.396Z,1.60
2023-03-08T02:01:33.279Z,1.60
2023-03-08T02:04:00.697Z,1.60
2023-03-08T02:06:28.395Z,1.60
2023-03-08T02:08:55.554Z,1.50
2023-03-08T02:11:23.153Z,1.50
2023-03-08T02:13:52.990Z,1.50
2023-03-08T02:16:21.028Z,1.50
2023-03-08T02:19:02.728Z,1.50
2023-03-08T02:21:30.503Z,1.50
2023-03-08T02:24:06.523Z,1.50
2023-03-08T02:26:35.963Z,1.50
2023-03-08T02:29:02.636Z,1.40
2023-03-08T02:31:29.286Z,1.40
2023-03-08T02:33:55.905Z,1.50
2023-03-08T02:36:22.575Z,1.40
2023-03-08T02:38:49.253Z,1.40
2023-03-08T02:41:16.035Z,1.40
2023-03-08T02:43:42.710Z,1.40
2023-03-08T02:46:12.868Z,1.40
2023-03-08T02:48:39.541Z,1.40
2023-03-08T02:51:06.725Z,1.40
2023-03-08T02:53:33.382Z,1.40
2023-03-08T02:56:00.048Z,1.40
2023-03-08T02:58:26.679Z,1.40
2023-03-08T03:00:53.343Z,1.40
2023-03-08T03:03:20.001Z,1.40
2023-03-08T03:05:46.738Z,1.40
2023-03-08T03:08:13.535Z,1.40
2023-03-08T03:13:06.596Z,1.40
2023-03-08T03:15:34.061Z,1.40
2023-03-08T03:18:00.766Z,1.40
2023-03-08T03:20:27.370Z,1.30
2023-03-08T03:22:54.072Z,1.30
2023-03-08T03:25:20.689Z,1.30
2023-03-08T03:27:47.295Z,1.30
2023-03-08T03:30:14.120Z,1.30
2023-03-08T03:32:40.831Z,1.30
2023-03-08T03:35:07.864Z,1.30
2023-03-08T03:37:35.493Z,1.30
2023-03-08T03:40:02.853Z,1.30
2023-03-08T03:42:29.515Z,1.30
2023-03-08T03:44:56.114Z,1.30
2023-03-08T03:47:22.766Z,1.30
2023-03-08T03:49:49.409Z,1.20
2023-03-08T03:52:16.042Z,1.10
2023-03-08T03:54:42.633Z,0.80
2023-03-08T03:57:09.283Z,0.80
2023-03-08T03:59:35.937Z,1.00
2023-03-08T04:02:02.564Z,1.10
2023-03-08T04:04:29.168Z,0.90
2023-03-08T04:06:55.875Z,0.90
2023-03-08T04:09:22.492Z,1.00
2023-03-08T04:11:49.152Z,1.10
2023-03-08T04:14:16.194Z,0.90
2023-03-08T04:16:42.805Z,1.00
2023-03-08T04:19:12.497Z,1.20
2023-03-08T04:21:39.320Z,1.30
2023-03-08T04:24:06.383Z,1.30
2023-03-08T04:26:33.449Z,1.30
2023-03-08T04:29:00.280Z,1.20
2023-03-08T04:31:29.118Z,1.20
2023-03-08T04:33:57.281Z,1.30
2023-03-08T04:36:24.321Z,1.30
2023-03-08T04:38:52.519Z,1.20
2023-03-08T04:41:19.634Z,1.30
2023-03-08T04:43:49.216Z,1.30
2023-03-08T04:46:17.949Z,1.40
2023-03-08T04:48:44.848Z,1.40
2023-03-08T04:51:13.452Z,1.50
2023-03-08T04:53:41.732Z,1.50
2023-03-08T04:56:09.164Z,1.50
2023-03-08T04:58:37.218Z,1.50
2023-03-08T05:01:15.476Z,1.50
2023-03-08T05:03:42.905Z,1.50
2023-03-08T05:06:10.754Z,1.50
2023-03-08T05:08:37.745Z,1.50
2023-03-08T05:11:04.961Z,1.50
2023-03-08T05:13:37.744Z,1.50
2023-03-08T05:16:06.017Z,1.50
2023-03-08T05:18:32.752Z,1.60
2023-03-08T05:21:04.754Z,1.60
2023-03-08T05:23:31.747Z,1.60
2023-03-08T05:26:00.994Z,1.60
2023-03-08T05:28:29.740Z,1.40
2023-03-08T05:31:03.527Z,1.40
2023-03-08T05:33:30.689Z,1.30
2023-03-08T05:35:57.919Z,1.40
2023-03-08T05:38:25.689Z,1.50
2023-03-08T05:40:52.685Z,1.50
2023-03-08T05:43:20.114Z,1.50
2023-03-08T05:45:58.196Z,1.40
2023-03-08T05:48:25.819Z,1.50
2023-03-08T05:50:53.205Z,1.60
2023-03-08T05:53:20.419Z,1.60
2023-03-08T05:55:47.356Z,1.60
2023-03-08T05:58:14.689Z,1.50
2023-03-08T06:00:41.700Z,1.50
2023-03-08T06:03:08.417Z,1.40
2023-03-08T06:05:35.491Z,1.40
2023-03-08T06:08:02.178Z,1.40
2023-03-08T06:10:28.911Z,1.40
2023-03-08T06:12:55.580Z,1.40
2023-03-08T06:15:22.247Z,1.30
2023-03-08T06:17:51.671Z,1.40
2023-03-08T06:20:18.402Z,1.40
2023-03-08T06:22:44.998Z,1.30
2023-03-08T06:25:11.673Z,1.30
2023-03-08T06:27:38.367Z,1.30
2023-03-08T06:30:05.540Z,1.40
2023-03-08T06:32:32.192Z,1.40
2023-03-08T06:34:58.857Z,1.50
2023-03-08T06:37:25.470Z,1.40
2023-03-08T06:39:52.125Z,1.40
2023-03-08T06:42:22.247Z,1.50
2023-03-08T06:44:52.479Z,1.60
2023-03-08T06:47:19.110Z,1.60
2023-03-08T06:49:46.986Z,1.60
2023-03-08T06:52:13.678Z,1.60
2023-03-08T06:54:40.329Z,1.50
2023-03-08T06:57:06.977Z,1.50
2023-03-08T06:59:33.672Z,1.60
2023-03-08T07:02:00.332Z,1.30
2023-03-08T07:04:27.003Z,1.20
2023-03-08T07:06:53.643Z,1.40
2023-03-08T07:09:20.350Z,1.40
2023-03-08T07:11:47.013Z,1.30
2023-03-08T07:14:13.663Z,1.30
2023-03-08T07:16:40.282Z,1.30
2023-03-08T07:19:06.907Z,1.30
2023-03-08T07:21:33.595Z,1.30
2023-03-08T07:24:00.404Z,1.40
2023-03-08T07:26:27.113Z,1.30
2023-03-08T07:28:53.917Z,1.50
2023-03-08T07:31:20.632Z,1.60
2023-03-08T07:33:47.296Z,1.60
2023-03-08T07:36:13.991Z,1.70
2023-03-08T07:38:40.731Z,1.80
2023-03-08T07:41:07.384Z,1.90
2023-03-08T07:43:34.079Z,1.90
2023-03-08T07:46:02.613Z,1.90
2023-03-08T07:48:30.867Z,2.00
2023-03-08T07:51:10.179Z,2.00
2023-03-08T07:53:37.667Z,2.10
2023-03-08T07:56:04.860Z,2.10
2023-03-08T07:58:31.537Z,2.20
2023-03-08T08:00:58.203Z,2.30
2023-03-08T08:03:24.894Z,2.10
2023-03-08T08:05:51.697Z,2.00
2023-03-08T08:08:18.355Z,2.20
2023-03-08T08:10:45.065Z,2.20
2023-03-08T08:13:11.785Z,2.20
2023-03-08T08:15:38.432Z,2.40
2023-03-08T08:18:05.374Z,2.30
2023-03-08T08:20:32.042Z,2.30
2023-03-08T08:22:58.709Z,2.30
2023-03-08T08:25:25.332Z,2.40
2023-03-08T08:27:52.288Z,2.40
2023-03-08T08:30:19.122Z,2.30
2023-03-08T08:32:45.815Z,2.20
2023-03-08T08:35:12.627Z,2.20
2023-03-08T08:37:39.359Z,2.20
2023-03-08T08:40:08.069Z,2.00
2023-03-08T08:42:34.780Z,2.00
2023-03-08T08:45:01.521Z,2.00
2023-03-08T08:47:29.729Z,2.00
2023-03-08T08:49:56.418Z,2.00
2023-03-08T08:52:23.226Z,1.90
2023-03-08T08:54:52.033Z,1.90
2023-03-08T08:57:18.708Z,2.00
2023-03-08T08:59:46.217Z,2.00
2023-03-08T09:02:12.946Z,2.10
2023-03-08T09:04:39.679Z,2.10
2023-03-08T09:07:07.362Z,2.10
2023-03-08T09:09:34.056Z,2.10
2023-03-08T09:12:00.747Z,2.00
2023-03-08T09:14:27.483Z,2.00
2023-03-08T09:16:54.237Z,2.20
2023-03-08T09:19:21.017Z,2.10
2023-03-08T09:21:47.662Z,2.20
2023-03-08T09:24:14.787Z,2.20
2023-03-08T09:26:41.554Z,2.20
2023-03-08T09:29:08.282Z,2.20
2023-03-08T09:31:37.179Z,2.30
2023-03-08T09:34:08.500Z,2.30
2023-03-08T09:36:36.710Z,2.40
2023-03-08T09:39:04.082Z,2.50
2023-03-08T09:41:36.836Z,2.50
2023-03-08T09:44:18.901Z,2.50
2023-03-08T09:47:08.952Z,2.40
2023-03-08T09:49:37.093Z,2.50
2023-03-08T09:52:26.681Z,2.40
2023-03-08T09:54:53.944Z,2.50
2023-03-08T09:57:26.704Z,2.40
2023-03-08T09:59:59.198Z,2.50
2023-03-08T10:02:47.060Z,2.50
2023-03-08T10:05:35.171Z,2.50
2023-03-08T10:08:24.973Z,2.70
2023-03-08T10:11:04.300Z,2.80
2023-03-08T10:13:41.282Z,3.00
2023-03-08T10:16:24.935Z,2.90
2023-03-08T10:19:18.743Z,2.90
2023-03-08T10:21:46.733Z,3.00
2023-03-08T10:24:26.725Z,3.20
2023-03-08T10:27:00.262Z,3.40
2023-03-08T10:29:27.068Z,3.30
2023-03-08T10:31:53.722Z,3.30
2023-03-08T10:34:22.783Z,3.30
2023-03-08T10:36:58.732Z,3.30
2023-03-08T10:39:25.499Z,3.50
2023-03-08T10:41:55.687Z,3.50
2023-03-08T10:44:56.968Z,3.60
2023-03-08T10:47:26.818Z,3.60
2023-03-08T10:50:15.338Z,3.70
2023-03-08T10:52:44.064Z,3.70
2023-03-08T10:55:15.242Z,3.80
2023-03-08T10:57:49.491Z,3.70
2023-03-08T11:00:22.205Z,3.70
2023-03-08T11:02:49.218Z,3.60
2023-03-08T11:05:29.246Z,3.90
2023-03-08T11:07:58.722Z,4.00
2023-03-08T11:10:27.604Z,4.10
2023-03-08T11:13:28.712Z,4.20
2023-03-08T11:16:05.931Z,4.30
2023-03-08T11:18:52.921Z,4.10
2023-03-08T11:21:50.967Z,4.20
2023-03-08T11:24:27.520Z,4.40
2023-03-08T11:27:14.275Z,4.30
2023-03-08T11:29:59.246Z,3.80
2023-03-08T11:32:50.542Z,4.00
2023-03-08T11:35:26.230Z,4.00
2023-03-08T11:38:04.394Z,4.00
2023-03-08T11:41:05.910Z,4.10
2023-03-08T11:43:38.675Z,4.20
2023-03-08T11:46:22.451Z,4.20
2023-03-08T11:49:27.869Z,4.30
2023-03-08T11:52:28.661Z,4.40
2023-03-08T11:55:34.723Z,4.40
2023-03-08T11:58:26.699Z,4.40
2023-03-08T12:00:59.385Z,4.50
2023-03-08T12:03:36.680Z,4.50
2023-03-08T12:06:22.878Z,4.50
2023-03-08T12:09:30.791Z,4.40
2023-03-08T12:12:05.298Z,4.40
2023-03-08T12:14:46.503Z,4.40
2023-03-08T12:17:22.452Z,4.30
2023-03-08T12:19:51.040Z,4.30
2023-03-08T12:22:33.668Z,4.20
2023-03-08T12:25:24.266Z,4.20
2023-03-08T12:28:02.059Z,4.20
2023-03-08T12:30:37.739Z,4.20
2023-03-08T12:33:06.393Z,4.20
2023-03-08T12:35:35.816Z,4.10
2023-03-08T12:38:24.597Z,4.30
2023-03-08T12:40:54.252Z,4.30
2023-03-08T12:43:20.832Z,4.30
2023-03-08T12:45:48.625Z,4.40
2023-03-08T12:48:23.884Z,4.30
2023-03-08T12:51:02.218Z,4.50
2023-03-08T12:53:45.715Z,4.50
2023-03-08T12:56:12.330Z,4.40
2023-03-08T12:59:10.591Z,4.30
2023-03-08T13:01:40.269Z,4.30
2023-03-08T13:04:40.960Z,4.20
2023-03-08T13:07:22.837Z,4.20
2023-03-08T13:09:59.243Z,4.30
2023-03-08T13:12:36.518Z,4.30
2023-03-08T13:15:12.139Z,4.50
2023-03-08T13:17:41.389Z,4.50
2023-03-08T13:20:41.155Z,4.50
2023-03-08T13:23:14.336Z,4.60
2023-03-08T13:25:46.589Z,4.70
2023-03-08T13:28:14.723Z,4.70
2023-03-08T13:30:53.211Z,4.60
2023-03-08T13:33:50.353Z,4.50
2023-03-08T13:36:19.131Z,4.60
2023-03-08T13:38:57.732Z,4.60
2023-03-08T13:41:42.636Z,4.70
2023-03-08T13:44:19.053Z,4.70
2023-03-08T13:46:48.438Z,4.70
2023-03-08T13:49:20.470Z,4.60
2023-03-08T13:51:48.745Z,4.50
2023-03-08T13:54:23.416Z,4.40
2023-03-08T13:56:53.583Z,4.50
2023-03-08T13:59:21.029Z,4.50
2023-03-08T14:01:52.086Z,4.50
2023-03-08T14:04:22.778Z,4.60
2023-03-08T14:06:57.765Z,4.30
2023-03-08T14:09:25.780Z,4.20
2023-03-08T14:11:58.207Z,4.30
2023-03-08T14:14:34.522Z,4.40
2023-03-08T14:17:01.861Z,4.40
2023-03-08T14:19:31.295Z,4.40
2023-03-08T14:22:03.804Z,4.30
2023-03-08T14:24:37.126Z,4.20
2023-03-08T14:27:26.935Z,4.00
2023-03-08T14:30:03.649Z,4.00
2023-03-08T14:32:32.392Z,4.10
2023-03-08T14:35:22.670Z,4.20
2023-03-08T14:37:49.595Z,4.20
2023-03-08T14:40:22.246Z,4.00
2023-03-08T14:42:52.909Z,4.00
2023-03-08T14:45:23.782Z,4.00
2023-03-08T14:47:58.128Z,4.10
2023-03-08T14:50:32.619Z,4.10
2023-03-08T14:53:02.328Z,4.00
2023-03-08T14:55:32.011Z,4.00
2023-03-08T14:58:04.218Z,4.00
2023-03-08T15:00:31.665Z,4.00
2023-03-08T15:03:00.046Z,3.90
2023-03-08T15:05:29.752Z,4.00
2023-03-08T15:07:57.766Z,4.10
2023-03-08T15:10:29.136Z,4.00
2023-03-08T15:12:56.233Z,4.00
2023-03-08T15:15:23.132Z,4.00
2023-03-08T15:17:52.521Z,4.00
2023-03-08T15:20:19.568Z,3.90
2023-03-08T15:22:55.836Z,4.00
2023-03-08T15:25:31.424Z,4.10
2023-03-08T15:27:58.032Z,4.20
2023-03-08T15:30:27.289Z,4.30
2023-03-08T15:32:54.534Z,4.30
2023-03-08T15:35:21.825Z,4.20
2023-03-08T15:37:49.014Z,4.30
2023-03-08T15:40:19.020Z,4.30
2023-03-08T15:42:46.402Z,4.30
2023-03-08T15:45:14.217Z,4.30
2023-03-08T15:47:41.198Z,4.30
2023-03-08T15:50:15.743Z,4.20
2023-03-08T15:52:42.641Z,4.20
2023-03-08T15:55:12.038Z,4.20
2023-03-08T15:57:39.255Z,4.10
2023-03-08T16:00:11.694Z,4.10
2023-03-08T16:02:39.202Z,4.10
2023-03-08T16:05:07.713Z,4.20
2023-03-08T16:07:35.166Z,4.20
2023-03-08T16:10:02.835Z,4.30
2023-03-08T16:12:29.491Z,4.40
2023-03-08T16:14:57.298Z,4.50
2023-03-08T16:17:27.689Z,4.50
2023-03-08T16:19:54.436Z,4.40
2023-03-08T16:22:21.252Z,4.40
2023-03-08T16:24:47.994Z,4.40
2023-03-08T16:27:14.915Z,4.40
2023-03-08T16:29:41.704Z,4.40
2023-03-08T16:32:10.030Z,4.40
2023-03-08T16:34:37.715Z,4.30
2023-03-08T16:37:05.524Z,4.10
2023-03-08T16:39:32.169Z,4.00
2023-03-08T16:41:58.770Z,4.00
2023-03-08T16:44:28.307Z,4.10
2023-03-08T16:46:55.324Z,4.10
2023-03-08T16:49:28.041Z,4.10
2023-03-08T16:51:55.624Z,4.10
2023-03-08T16:54:23.116Z,4.10
2023-03-08T16:56:50.456Z,4.10
2023-03-08T16:59:17.602Z,3.90
2023-03-08T17:01:44.877Z,3.90
2023-03-08T17:04:11.769Z,3.90
2023-03-08T17:06:39.275Z,4.00
2023-03-08T17:09:06.578Z,4.00
2023-03-08T17:11:34.748Z,4.00
2023-03-08T17:14:05.579Z,4.10
2023-03-08T17:16:33.468Z,3.90
2023-03-08T17:19:01.774Z,3.90
2023-03-08T17:21:29.795Z,3.80
2023-03-08T17:23:57.362Z,3.80
2023-03-08T17:26:24.152Z,3.90
2023-03-08T17:28:52.277Z,4.00
2023-03-08T17:31:21.215Z,4.00
2023-03-08T17:33:48.910Z,4.00
2023-03-08T17:36:15.776Z,3.90
2023-03-08T17:38:42.949Z,3.90
2023-03-08T17:41:12.203Z,3.90
2023-03-08T17:43:41.176Z,3.90
2023-03-08T17:46:13.996Z,3.90
2023-03-08T17:48:41.250Z,3.90
2023-03-08T17:51:10.881Z,3.70
2023-03-08T17:53:38.102Z,3.70
2023-03-08T17:56:13.723Z,3.70
2023-03-08T17:58:40.737Z,3.70
2023-03-08T18:01:12.753Z,3.70
2023-03-08T18:03:39.408Z,3.70
2023-03-08T18:06:06.759Z,3.80
2023-03-08T18:08:34.815Z,3.80
2023-03-08T18:11:01.524Z,3.60
2023-03-08T18:13:28.191Z,3.50
2023-03-08T18:15:55.280Z,3.40
2023-03-08T18:18:22.114Z,3.40
2023-03-08T18:20:48.865Z,3.30
2023-03-08T18:23:15.597Z,3.30
2023-03-08T18:25:42.610Z,3.30
2023-03-08T18:28:09.396Z,3.30
2023-03-08T18:30:38.036Z,3.30
2023-03-08T18:33:05.237Z,3.30
2023-03-08T18:35:32.056Z,3.40
2023-03-08T18:37:58.764Z,3.30
2023-03-08T18:40:28.422Z,3.20
2023-03-08T18:42:55.300Z,3.10
2023-03-08T18:45:21.968Z,3.00
2023-03-08T18:47:52.234Z,3.10
2023-03-08T18:50:19.345Z,3.10
2023-03-08T18:52:46.610Z,3.10
2023-03-08T18:55:13.282Z,3.10
2023-03-08T18:57:39.927Z,3.10
2023-03-08T19:00:10.406Z,3.10
2023-03-08T19:02:37.450Z,3.10
2023-03-08T19:05:04.376Z,3.20
2023-03-08T19:07:31.548Z,3.10
2023-03-08T19:10:00.090Z,3.00
2023-03-08T19:12:27.886Z,3.00
2023-03-08T19:14:54.561Z,3.20
2023-03-08T19:17:21.170Z,3.20
2023-03-08T19:19:47.861Z,3.20
2023-03-08T19:22:15.268Z,3.10
2023-03-08T19:24:41.929Z,3.00
2023-03-08T19:27:08.648Z,3.00
2023-03-08T19:29:35.316Z,3.00
2023-03-08T19:32:04.800Z,3.10
2023-03-08T19:34:33.971Z,3.10
2023-03-08T19:37:01.447Z,2.90
2023-03-08T19:39:30.347Z,2.90
2023-03-08T19:42:00.135Z,2.80
2023-03-08T19:44:27.730Z,2.80
2023-03-08T19:46:55.179Z,2.80
2023-03-08T19:49:24.640Z,3.00
2023-03-08T19:51:53.040Z,3.10
2023-03-08T19:54:20.156Z,3.00
2023-03-08T19:56:47.238Z,3.00
2023-03-08T19:59:14.205Z,3.00
2023-03-08T20:01:41.722Z,3.00
2023-03-08T20:04:09.893Z,3.10
2023-03-08T20:06:40.106Z,2.90
2023-03-08T20:09:09.573Z,2.90
2023-03-08T20:11:36.769Z,2.90
2023-03-08T20:14:04.014Z,3.00
2023-03-08T20:16:31.224Z,2.80
2023-03-08T20:18:58.220Z,2.80
2023-03-08T20:21:27.554Z,2.90
2023-03-08T20:23:57.697Z,3.00
2023-03-08T20:26:36.985Z,2.90
2023-03-08T20:29:04.462Z,2.80
2023-03-08T20:31:32.212Z,2.80
2023-03-08T20:33:59.328Z,2.80
2023-03-08T20:36:26.318Z,2.80
2023-03-08T20:38:53.058Z,2.70
2023-03-08T20:41:21.552Z,2.80
2023-03-08T20:43:50.142Z,2.70
2023-03-08T20:46:19.854Z,2.60
2023-03-08T20:48:47.093Z,2.70
2023-03-08T20:51:16.832Z,2.50
2023-03-08T20:53:44.205Z,2.50
2023-03-08T20:56:15.478Z,2.50
2023-03-08T20:58:43.010Z,2.50
2023-03-08T21:01:19.143Z,2.50
2023-03-08T21:03:46.687Z,2.50
2023-03-08T21:06:19.774Z,2.50
2023-03-08T21:08:47.499Z,2.60
2023-03-08T21:11:15.291Z,2.50
2023-03-08T21:13:42.424Z,2.50
2023-03-08T21:16:13.208Z,2.50
2023-03-08T21:18:45.769Z,2.50
2023-03-08T21:21:39.756Z,2.60
2023-03-08T21:24:10.628Z,2.60
2023-03-08T21:26:37.326Z,2.80
2023-03-08T21:29:06.752Z,2.70
2023-03-08T21:31:36.066Z,2.60
2023-03-08T21:34:06.522Z,2.70
2023-03-08T21:36:33.617Z,2.70
2023-03-08T21:39:00.611Z,2.60
2023-03-08T21:41:30.075Z,2.50
2023-03-08T21:43:57.411Z,2.40
2023-03-08T21:46:24.648Z,2.40
2023-03-08T21:48:51.536Z,2.30
2023-03-08T21:51:18.241Z,2.50
2023-03-08T21:53:44.971Z,2.40
2023-03-08T21:56:14.441Z,2.40
2023-03-08T21:58:41.451Z,2.40
2023-03-08T22:01:24.150Z,2.40
2023-03-08T22:03:51.296Z,2.30
2023-03-08T22:06:18.146Z,2.20
2023-03-08T22:08:44.842Z,2.20
2023-03-08T22:11:11.522Z,2.20
2023-03-08T22:13:38.263Z,2.30
2023-03-08T22:16:05.742Z,2.40
2023-03-08T22:18:32.637Z,2.40
2023-03-08T22:21:00.299Z,2.30
2023-03-08T22:23:27.642Z,2.40
2023-03-08T22:25:54.697Z,2.30
2023-03-08T22:28:21.446Z,2.30
2023-03-08T22:30:48.367Z,2.30
2023-03-08T22:33:15.104Z,2.30
2023-03-08T22:35:47.865Z,2.30
2023-03-08T22:38:16.020Z,2.30
2023-03-08T22:40:42.886Z,2.30
2023-03-08T22:43:10.165Z,2.40
2023-03-08T22:45:37.230Z,2.50
2023-03-08T22:48:04.538Z,2.40
2023-03-08T22:50:31.253Z,2.40
2023-03-08T22:52:57.968Z,2.40
2023-03-08T22:55:24.668Z,2.30
2023-03-08T22:57:51.389Z,2.30
2023-03-08T23:00:18.143Z,2.30
2023-03-08T23:02:46.610Z,2.30
2023-03-08T23:05:15.555Z,2.40
2023-03-08T23:07:42.825Z,2.40
2023-03-08T23:10:10.969Z,2.40
2023-03-08T23:12:37.828Z,2.40
2023-03-08T23:15:05.491Z,2.30
2023-03-08T23:17:32.223Z,2.30
2023-03-08T23:19:59.094Z,2.20
2023-03-08T23:22:25.820Z,2.20
2023-03-08T23:24:52.597Z,2.20
2023-03-08T23:27:20.065Z,2.20
2023-03-08T23:29:46.672Z,2.20
2023-03-08T23:32:13.508Z,2.20
2023-03-08T23:34:40.520Z,2.20
2023-03-08T23:37:07.263Z,2.10
2023-03-08T23:39:34.146Z,2.10
2023-03-08T23:42:01.205Z,2.20
2023-03-08T23:44:28.105Z,2.20
2023-03-08T23:46:54.788Z,2.20
2023-03-08T23:49:21.421Z,2.20
2023-03-08T23:51:48.071Z,2.10
2023-03-08T23:54:14.764Z,2.00
2023-03-08T23:56:42.970Z,1.90
2023-03-08T23:59:19.156Z,2.00
